Time;durP1;ratioP1;P1;durP2;ratioP2;P2;SDS_P1;SDS_P2;PMS_P1;PMS_P2;Temp;Humidity;BMP_temperature;BMP_pressure;BME280_temperature;BME280_humidity;BME280_pressure;Samples;Min_cycle;Max_cycle;Signal;HPM_P1;HPM_P2
2022/02/27 00:02:03;;;;;;;;;;;19.80;33.00;;;;;;5093338;28;19931;-66
2022/02/27 00:04:28;;;;;;;;;;;19.80;33.00;;;;;;5093525;28;19917;-66
2022/02/27 00:06:54;;;;;;;;;;;19.80;33.00;;;;;;5093726;28;19908;-66
2022/02/27 00:09:19;;;;;;;;;;;19.70;33.00;;;;;;5093122;28;19916;-66
2022/02/27 00:11:44;;;;;;;;;;;19.70;33.00;;;;;;5093226;28;20045;-66
2022/02/27 00:14:10;;;;;;;;;;;19.70;33.00;;;;;;5093409;28;20000;-66
2022/02/27 00:16:35;;;;;;;;;;;19.70;32.90;;;;;;5093227;28;19916;-66
2022/02/27 00:19:02;;;;;;;;;;;19.70;33.00;;;;;;5093314;28;19908;-66
2022/02/27 00:21:27;;;;;;;;;;;19.70;32.90;;;;;;5093374;28;20421;-66
2022/02/27 00:23:53;;;;;;;;;;;19.70;33.00;;;;;;5093275;28;19991;-67
2022/02/27 00:26:18;;;;;;;;;;;19.70;33.00;;;;;;5093187;28;20371;-67
2022/02/27 00:28:44;;;;;;;;;;;19.70;32.90;;;;;;5093218;28;20386;-67
2022/02/27 00:31:09;;;;;;;;;;;19.70;33.00;;;;;;5093442;28;19920;-67
2022/02/27 00:33:35;;;;;;;;;;;19.70;33.00;;;;;;5093305;28;19946;-67
2022/02/27 00:36:00;;;;;;;;;;;19.70;33.00;;;;;;5093416;28;19912;-67
2022/02/27 00:38:25;;;;;;;;;;;19.60;33.00;;;;;;5093300;28;19912;-67
2022/02/27 00:40:51;;;;;;;;;;;19.60;32.90;;;;;;5093484;28;19935;-67
2022/02/27 00:43:16;;;;;;;;;;;19.60;32.90;;;;;;5093408;28;19915;-67
2022/02/27 00:45:42;;;;;;;;;;;19.60;32.90;;;;;;5093202;28;19969;-67
2022/02/27 00:48:07;;;;;;;;;;;19.60;32.90;;;;;;5093295;28;19908;-67
2022/02/27 00:50:33;;;;;;;;;;;19.60;32.90;;;;;;5093292;28;19969;-67
2022/02/27 00:52:58;;;;;;;;;;;19.60;32.90;;;;;;5093087;28;20457;-67
2022/02/27 00:55:24;;;;;;;;;;;19.60;32.90;;;;;;5092898;28;19919;-67
2022/02/27 00:57:49;;;;;;;;;;;19.60;32.90;;;;;;5074788;28;20008;-66
2022/02/27 01:00:15;;;;;;;;;;;19.50;32.90;;;;;;5092667;28;19962;-66
2022/02/27 01:02:40;;;;;;;;;;;19.50;33.00;;;;;;5092759;28;20378;-67
2022/02/27 01:05:06;;;;;;;;;;;19.60;32.90;;;;;;5092917;28;20007;-67
2022/02/27 01:07:31;;;;;;;;;;;19.50;32.90;;;;;;5092610;28;19908;-66
2022/02/27 01:09:57;;;;;;;;;;;19.50;32.90;;;;;;5092675;28;20283;-68
2022/02/27 01:12:22;;;;;;;;;;;19.50;32.90;;;;;;5092838;28;19950;-67
2022/02/27 01:14:48;;;;;;;;;;;19.50;32.90;;;;;;5092534;28;19965;-67
2022/02/27 01:17:14;;;;;;;;;;;19.50;32.90;;;;;;5092835;28;20307;-67
2022/02/27 01:19:39;;;;;;;;;;;19.50;32.90;;;;;;5092965;28;19908;-67
2022/02/27 01:22:05;;;;;;;;;;;19.50;32.80;;;;;;5092548;28;19908;-67
2022/02/27 01:24:30;;;;;;;;;;;19.50;32.90;;;;;;5092849;28;20003;-67
2022/02/27 01:26:56;;;;;;;;;;;19.50;32.90;;;;;;5092604;28;20253;-67
2022/02/27 01:29:21;;;;;;;;;;;19.50;32.80;;;;;;5092417;28;19913;-67
2022/02/27 01:31:47;;;;;;;;;;;19.50;32.90;;;;;;5092695;28;20387;-67
2022/02/27 01:34:12;;;;;;;;;;;19.50;32.80;;;;;;5092833;28;20359;-67
2022/02/27 01:36:38;;;;;;;;;;;19.50;32.90;;;;;;5092763;28;20336;-67
2022/02/27 01:39:03;;;;;;;;;;;19.40;32.80;;;;;;5092633;28;19997;-67
2022/02/27 01:41:29;;;;;;;;;;;19.40;32.90;;;;;;5092638;28;20256;-67
2022/02/27 01:43:54;;;;;;;;;;;19.40;32.90;;;;;;5092435;28;19947;-66
2022/02/27 01:46:20;;;;;;;;;;;19.40;32.80;;;;;;5092494;28;19913;-67
2022/02/27 01:48:45;;;;;;;;;;;19.40;32.80;;;;;;5093370;28;20011;-67
2022/02/27 01:51:11;;;;;;;;;;;19.40;32.80;;;;;;5096511;28;19923;-66
2022/02/27 01:53:36;;;;;;;;;;;19.40;32.90;;;;;;5096241;28;19984;-65
2022/02/27 01:56:02;;;;;;;;;;;19.40;32.80;;;;;;5096226;28;19962;-66
2022/02/27 01:58:28;;;;;;;;;;;19.40;32.70;;;;;;5095948;28;19952;-65
2022/02/27 02:00:57;;;;;;;;;;;19.40;32.70;;;;;;5095797;28;20007;-66
2022/02/27 02:03:23;;;;;;;;;;;19.40;32.70;;;;;;5096243;28;19908;-66
2022/02/27 02:05:49;;;;;;;;;;;19.30;32.80;;;;;;5096023;28;19927;-66
2022/02/27 02:08:14;;;;;;;;;;;19.30;32.70;;;;;;5096067;28;20375;-66
2022/02/27 02:10:40;;;;;;;;;;;19.30;32.80;;;;;;5095897;28;19931;-66
2022/02/27 02:13:06;;;;;;;;;;;19.30;32.80;;;;;;5077632;28;19915;-66
2022/02/27 02:15:31;;;;;;;;;;;19.30;32.80;;;;;;5077576;28;19908;-66
2022/02/27 02:17:57;;;;;;;;;;;19.30;32.70;;;;;;5096003;28;19916;-66
2022/02/27 02:20:22;;;;;;;;;;;19.30;32.80;;;;;;5095876;28;19909;-65
2022/02/27 02:22:48;;;;;;;;;;;19.30;32.80;;;;;;5095847;28;19915;-66
2022/02/27 02:25:13;;;;;;;;;;;19.30;32.80;;;;;;5095755;28;19999;-66
2022/02/27 02:27:39;;;;;;;;;;;19.30;32.70;;;;;;5095613;28;19966;-65
2022/02/27 02:30:05;;;;;;;;;;;19.30;32.80;;;;;;5095508;28;19965;-66
2022/02/27 02:32:30;;;;;;;;;;;19.20;32.80;;;;;;5095478;28;19944;-66
2022/02/27 02:34:56;;;;;;;;;;;19.20;32.80;;;;;;5095645;28;19909;-65
2022/02/27 02:37:21;;;;;;;;;;;19.20;32.70;;;;;;5095688;28;19915;-66
2022/02/27 02:39:47;;;;;;;;;;;19.20;32.70;;;;;;5095517;28;19994;-66
2022/02/27 02:42:12;;;;;;;;;;;19.20;32.70;;;;;;5095407;28;19946;-65
2022/02/27 02:44:39;;;;;;;;;;;19.20;32.80;;;;;;5095232;28;20007;-66
2022/02/27 02:47:05;;;;;;;;;;;19.20;32.70;;;;;;5095523;28;19954;-66
2022/02/27 02:49:30;;;;;;;;;;;19.20;32.70;;;;;;5095092;28;19923;-65
2022/02/27 02:51:56;;;;;;;;;;;19.20;32.70;;;;;;5095303;28;19959;-66
2022/02/27 02:54:22;;;;;;;;;;;19.20;32.70;;;;;;5095259;28;20325;-66
2022/02/27 02:56:47;;;;;;;;;;;19.20;32.70;;;;;;5094969;28;19908;-65
2022/02/27 02:59:12;;;;;;;;;;;19.20;32.70;;;;;;5094755;28;19908;-64
2022/02/27 03:01:38;;;;;;;;;;;19.20;32.70;;;;;;5094603;28;20007;-66
2022/02/27 03:04:04;;;;;;;;;;;19.20;32.70;;;;;;5095104;28;19923;-65
2022/02/27 03:06:30;;;;;;;;;;;19.20;32.70;;;;;;5094870;28;19989;-66
2022/02/27 03:08:56;;;;;;;;;;;19.20;32.70;;;;;;5094672;28;20359;-66
2022/02/27 03:11:21;;;;;;;;;;;19.20;32.70;;;;;;5094627;28;20054;-66
2022/02/27 03:13:47;;;;;;;;;;;19.10;32.70;;;;;;5094562;28;19918;-66
2022/02/27 03:16:13;;;;;;;;;;;19.10;32.70;;;;;;5094497;28;20283;-66
2022/02/27 03:18:39;;;;;;;;;;;19.10;32.70;;;;;;5094533;28;19908;-64
2022/02/27 03:21:04;;;;;;;;;;;19.10;32.70;;;;;;5094469;28;20279;-66
2022/02/27 03:23:30;;;;;;;;;;;19.10;32.70;;;;;;5094230;28;20262;-66
2022/02/27 03:25:56;;;;;;;;;;;19.10;32.70;;;;;;5094123;28;19908;-66
2022/02/27 03:28:22;;;;;;;;;;;19.10;32.70;;;;;;5094115;28;19945;-66
2022/02/27 03:30:47;;;;;;;;;;;19.10;32.60;;;;;;5094043;28;19916;-67
2022/02/27 03:33:13;;;;;;;;;;;19.10;32.70;;;;;;5094222;28;19908;-66
2022/02/27 03:35:38;;;;;;;;;;;19.10;32.70;;;;;;5094095;28;20057;-66
2022/02/27 03:38:04;;;;;;;;;;;19.10;32.70;;;;;;5094028;28;19908;-66
2022/02/27 03:40:30;;;;;;;;;;;19.10;32.70;;;;;;5093887;28;20248;-66
2022/02/27 03:42:55;;;;;;;;;;;19.10;32.70;;;;;;5093801;28;20451;-66
2022/02/27 03:45:21;;;;;;;;;;;19.10;32.70;;;;;;5093707;28;19947;-66
2022/02/27 03:47:47;;;;;;;;;;;19.10;32.70;;;;;;5093772;28;19909;-66
2022/02/27 03:50:14;;;;;;;;;;;19.00;32.70;;;;;;5093640;28;19916;-66
2022/02/27 03:52:40;;;;;;;;;;;19.10;32.70;;;;;;5093589;28;19999;-66
2022/02/27 03:55:06;;;;;;;;;;;19.10;32.70;;;;;;5093753;28;19966;-66
2022/02/27 03:57:31;;;;;;;;;;;19.00;32.70;;;;;;5093469;28;19908;-66
2022/02/27 03:59:57;;;;;;;;;;;19.00;32.70;;;;;;5093566;28;20072;-66
2022/02/27 04:02:22;;;;;;;;;;;19.00;32.70;;;;;;5093554;28;20275;-66
2022/02/27 04:04:48;;;;;;;;;;;19.00;32.70;;;;;;5093470;28;20061;-66
2022/02/27 04:07:14;;;;;;;;;;;19.00;32.60;;;;;;5093514;28;19908;-66
2022/02/27 04:09:40;;;;;;;;;;;19.00;32.70;;;;;;5093269;28;19962;-66
2022/02/27 04:12:06;;;;;;;;;;;19.00;32.60;;;;;;5092768;28;20006;-66
2022/02/27 04:14:31;;;;;;;;;;;19.00;32.60;;;;;;5093251;28;19908;-66
2022/02/27 04:16:57;;;;;;;;;;;19.00;32.70;;;;;;5093310;28;20275;-66
2022/02/27 04:19:22;;;;;;;;;;;19.00;32.60;;;;;;5093339;28;19908;-66
2022/02/27 04:21:47;;;;;;;;;;;19.00;32.60;;;;;;5093247;28;20021;-66
2022/02/27 04:24:13;;;;;;;;;;;19.00;32.60;;;;;;5093229;28;19908;-66
2022/02/27 04:26:39;;;;;;;;;;;19.00;32.60;;;;;;5093124;28;20325;-66
2022/02/27 04:29:04;;;;;;;;;;;19.00;32.60;;;;;;5093168;28;20027;-66
2022/02/27 04:31:30;;;;;;;;;;;19.00;32.60;;;;;;5093164;28;20264;-66
2022/02/27 04:33:55;;;;;;;;;;;18.90;32.60;;;;;;5092954;28;20282;-66
2022/02/27 04:36:21;;;;;;;;;;;18.90;32.60;;;;;;5093080;28;19966;-66
2022/02/27 04:38:46;;;;;;;;;;;19.00;32.60;;;;;;5093007;28;20286;-66
2022/02/27 04:41:18;;;;;;;;;;;18.90;32.60;;;;;;5092817;28;19974;-66
2022/02/27 04:43:46;;;;;;;;;;;18.90;32.60;;;;;;5092892;28;20383;-66
2022/02/27 04:46:12;;;;;;;;;;;18.90;32.70;;;;;;5092994;28;19912;-65
2022/02/27 04:48:38;;;;;;;;;;;18.90;32.60;;;;;;5092883;28;20011;-66
2022/02/27 04:51:04;;;;;;;;;;;18.90;32.60;;;;;;5092801;28;20378;-66
2022/02/27 04:53:29;;;;;;;;;;;18.90;32.60;;;;;;5074640;28;19954;-66
2022/02/27 04:55:55;;;;;;;;;;;18.90;32.70;;;;;;5074640;28;20060;-66
2022/02/27 04:58:20;;;;;;;;;;;18.90;32.60;;;;;;5092987;28;19912;-66
2022/02/27 05:00:46;;;;;;;;;;;18.90;32.60;;;;;;5092630;28;19920;-65
2022/02/27 05:03:11;;;;;;;;;;;18.90;32.60;;;;;;5093085;28;19937;-66
2022/02/27 05:05:36;;;;;;;;;;;18.90;32.60;;;;;;5092885;28;19931;-66
2022/02/27 05:08:02;;;;;;;;;;;18.90;32.70;;;;;;5092683;28;19908;-64
2022/02/27 05:10:27;;;;;;;;;;;18.90;32.60;;;;;;5092521;28;19916;-66
2022/02/27 05:12:53;;;;;;;;;;;18.90;32.60;;;;;;5092519;28;19947;-66
2022/02/27 05:15:19;;;;;;;;;;;18.90;32.60;;;;;;5092610;28;19908;-64
2022/02/27 05:17:44;;;;;;;;;;;18.90;32.60;;;;;;5092693;28;19912;-66
2022/02/27 05:20:10;;;;;;;;;;;18.90;32.60;;;;;;5092774;28;19912;-66
2022/02/27 05:22:40;;;;;;;;;;;18.90;32.60;;;;;;5092619;28;19916;-65
2022/02/27 05:25:06;;;;;;;;;;;18.90;32.60;;;;;;5095578;28;19978;-66
2022/02/27 05:27:31;;;;;;;;;;;19.00;32.50;;;;;;5096657;28;19950;-66
2022/02/27 05:29:56;;;;;;;;;;;19.00;32.40;;;;;;5096742;28;19950;-66
2022/02/27 05:32:22;;;;;;;;;;;19.00;32.50;;;;;;5096794;28;20451;-67
2022/02/27 05:34:47;;;;;;;;;;;19.00;32.40;;;;;;5078455;28;19915;-67
2022/02/27 05:37:13;;;;;;;;;;;19.10;32.40;;;;;;5096592;28;19912;-65
2022/02/27 05:39:38;;;;;;;;;;;19.10;32.40;;;;;;5096521;28;19908;-67
2022/02/27 05:42:04;;;;;;;;;;;19.10;32.40;;;;;;5096658;28;19931;-67
2022/02/27 05:44:29;;;;;;;;;;;19.10;32.40;;;;;;5096465;28;20414;-66
2022/02/27 05:46:55;;;;;;;;;;;19.10;32.40;;;;;;5096416;28;19961;-67
2022/02/27 05:49:20;;;;;;;;;;;19.10;32.30;;;;;;5095987;28;19916;-66
2022/02/27 05:51:47;;;;;;;;;;;19.20;32.30;;;;;;5096028;28;19946;-67
2022/02/27 05:54:13;;;;;;;;;;;19.20;32.30;;;;;;5095928;28;20388;-67
2022/02/27 05:56:39;;;;;;;;;;;19.20;32.30;;;;;;5096281;28;19916;-66
2022/02/27 05:59:04;;;;;;;;;;;19.20;32.30;;;;;;5096113;28;19908;-65
2022/02/27 06:01:30;;;;;;;;;;;19.20;32.40;;;;;;5095783;28;19962;-67
2022/02/27 06:03:55;;;;;;;;;;;19.20;32.30;;;;;;5095795;28;19908;-66
2022/02/27 06:06:21;;;;;;;;;;;19.20;32.40;;;;;;5095799;28;19908;-67
2022/02/27 06:08:46;;;;;;;;;;;19.20;32.20;;;;;;5095660;28;19916;-66
2022/02/27 06:11:11;;;;;;;;;;;19.20;32.30;;;;;;5095782;28;19922;-66
2022/02/27 06:13:37;;;;;;;;;;;19.20;32.30;;;;;;5095831;28;19946;-67
2022/02/27 06:16:02;;;;;;;;;;;19.20;32.20;;;;;;5095846;28;20405;-66
2022/02/27 06:18:28;;;;;;;;;;;19.20;32.30;;;;;;5095580;28;20436;-66
2022/02/27 06:20:53;;;;;;;;;;;19.20;32.20;;;;;;5095499;28;20007;-66
2022/02/27 06:23:19;;;;;;;;;;;19.30;32.20;;;;;;5095416;28;19908;-66
2022/02/27 06:25:44;;;;;;;;;;;19.30;32.20;;;;;;5095879;28;19912;-66
2022/02/27 06:28:09;;;;;;;;;;;19.30;32.10;;;;;;5095563;28;20298;-67
2022/02/27 06:30:35;;;;;;;;;;;19.30;32.10;;;;;;5095839;28;19916;-66
2022/02/27 06:33:00;;;;;;;;;;;19.30;32.10;;;;;;5095733;28;19930;-66
2022/02/27 06:35:26;;;;;;;;;;;19.30;32.10;;;;;;5095174;28;19946;-67
2022/02/27 06:37:54;;;;;;;;;;;19.30;32.30;;;;;;5095570;28;20027;-67
2022/02/27 06:40:20;;;;;;;;;;;19.30;32.10;;;;;;5095850;28;19908;-68
2022/02/27 06:42:46;;;;;;;;;;;19.30;32.00;;;;;;5095796;28;20268;-68
2022/02/27 06:45:12;;;;;;;;;;;19.30;32.10;;;;;;5095709;28;19968;-67
2022/02/27 06:47:38;;;;;;;;;;;19.40;32.30;;;;;;5095834;28;19912;-67
2022/02/27 06:50:04;;;;;;;;;;;19.30;32.00;;;;;;5095645;28;20352;-67
2022/02/27 06:52:29;;;;;;;;;;;19.40;32.10;;;;;;5095453;28;20001;-67
2022/02/27 06:54:55;;;;;;;;;;;19.40;32.00;;;;;;5095753;28;20383;-67
2022/02/27 06:57:20;;;;;;;;;;;19.40;32.00;;;;;;5095284;28;19919;-67
2022/02/27 06:59:46;;;;;;;;;;;19.40;32.00;;;;;;5095373;28;19920;-67
2022/02/27 07:02:12;;;;;;;;;;;19.40;32.00;;;;;;5095090;28;19915;-67
2022/02/27 07:04:38;;;;;;;;;;;19.40;31.90;;;;;;5095440;28;19930;-67
2022/02/27 07:07:04;;;;;;;;;;;19.40;31.90;;;;;;5094741;28;20399;-67
2022/02/27 07:09:29;;;;;;;;;;;19.40;32.00;;;;;;5094995;28;19908;-67
2022/02/27 07:11:54;;;;;;;;;;;19.40;31.90;;;;;;5094711;28;19912;-67
2022/02/27 07:14:20;;;;;;;;;;;19.40;31.90;;;;;;5094730;28;19964;-67
2022/02/27 07:16:46;;;;;;;;;;;19.40;31.90;;;;;;5094592;28;19908;-67
2022/02/27 07:19:11;;;;;;;;;;;19.40;31.90;;;;;;5094443;28;19908;-67
2022/02/27 07:21:37;;;;;;;;;;;19.50;31.80;;;;;;5094347;28;19908;-67
2022/02/27 07:24:02;;;;;;;;;;;19.40;31.80;;;;;;5094276;28;20280;-67
2022/02/27 07:26:28;;;;;;;;;;;19.50;31.80;;;;;;5076011;28;19943;-67
2022/02/27 07:28:53;;;;;;;;;;;19.40;31.80;;;;;;5094299;28;19907;-67
2022/02/27 07:31:19;;;;;;;;;;;19.50;31.90;;;;;;5094077;28;19920;-67
2022/02/27 07:33:45;;;;;;;;;;;19.50;31.70;;;;;;5094537;28;19953;-67
2022/02/27 07:36:10;;;;;;;;;;;19.50;31.70;;;;;;5094039;28;20057;-67
2022/02/27 07:38:36;;;;;;;;;;;19.50;31.80;;;;;;5094335;28;19975;-67
2022/02/27 07:41:02;;;;;;;;;;;19.50;31.80;;;;;;5094132;28;19960;-67
2022/02/27 07:43:27;;;;;;;;;;;19.50;31.70;;;;;;5094136;28;19908;-66
2022/02/27 07:45:53;;;;;;;;;;;19.50;31.80;;;;;;5093717;28;19959;-67
2022/02/27 07:48:19;;;;;;;;;;;19.50;31.70;;;;;;5093351;28;20280;-67
2022/02/27 07:50:44;;;;;;;;;;;19.50;31.70;;;;;;5094235;28;19959;-67
2022/02/27 07:53:10;;;;;;;;;;;19.50;31.70;;;;;;5094288;28;20407;-66
2022/02/27 07:55:35;;;;;;;;;;;19.50;31.80;;;;;;5094324;28;20290;-68
2022/02/27 07:58:01;;;;;;;;;;;19.60;31.80;;;;;;5092812;28;19912;-67
2022/02/27 08:00:27;;;;;;;;;;;19.50;31.90;;;;;;5093498;28;19920;-67
2022/02/27 08:02:52;;;;;;;;;;;19.50;31.60;;;;;;5093666;28;20018;-67
2022/02/27 08:05:18;;;;;;;;;;;19.60;31.70;;;;;;5093599;28;20359;-67
2022/02/27 08:07:44;;;;;;;;;;;19.60;31.70;;;;;;5094127;28;20325;-67
2022/02/27 08:10:10;;;;;;;;;;;19.60;31.60;;;;;;5093652;28;19959;-67
2022/02/27 08:12:39;;;;;;;;;;;19.60;31.50;;;;;;5093502;28;19908;-66
2022/02/27 08:15:05;;;;;;;;;;;19.60;31.50;;;;;;5093398;28;19953;-67
2022/02/27 08:17:30;;;;;;;;;;;19.60;31.50;;;;;;5093223;28;20368;-67
2022/02/27 08:19:56;;;;;;;;;;;19.70;31.50;;;;;;5093183;28;19960;-67
2022/02/27 08:22:21;;;;;;;;;;;19.60;31.60;;;;;;5093461;28;19961;-67
2022/02/27 08:24:46;;;;;;;;;;;19.70;31.50;;;;;;5093433;28;20287;-67
2022/02/27 08:27:12;;;;;;;;;;;19.70;31.50;;;;;;5093371;28;19914;-67
2022/02/27 08:29:37;;;;;;;;;;;19.70;31.50;;;;;;5093120;28;19957;-66
2022/02/27 08:32:03;;;;;;;;;;;19.70;31.60;;;;;;5093059;28;20383;-67
2022/02/27 08:34:30;;;;;;;;;;;19.70;31.50;;;;;;5092955;28;19915;-66
2022/02/27 08:36:56;;;;;;;;;;;19.70;31.60;;;;;;5092880;28;20474;-67
2022/02/27 08:39:21;;;;;;;;;;;19.70;31.60;;;;;;5093071;28;19967;-67
2022/02/27 08:41:47;;;;;;;;;;;19.70;31.70;;;;;;5092779;28;19920;-66
2022/02/27 08:44:12;;;;;;;;;;;19.70;31.80;;;;;;5092941;28;19915;-67
2022/02/27 08:46:39;;;;;;;;;;;19.70;31.50;;;;;;5092912;28;19930;-67
2022/02/27 08:49:06;;;;;;;;;;;19.70;31.50;;;;;;5092776;28;20306;-67
2022/02/27 08:51:32;;;;;;;;;;;19.70;31.50;;;;;;5092828;28;19925;-67
2022/02/27 08:53:57;;;;;;;;;;;19.80;31.70;;;;;;5093122;28;19908;-67
2022/02/27 08:56:22;;;;;;;;;;;19.80;31.50;;;;;;5092647;28;19908;-67
2022/02/27 08:58:48;;;;;;;;;;;19.80;31.60;;;;;;5092491;28;19913;-67
2022/02/27 09:01:13;;;;;;;;;;;19.80;31.30;;;;;;5092374;28;19920;-67
2022/02/27 09:03:39;;;;;;;;;;;19.80;31.30;;;;;;5092582;28;19977;-66
2022/02/27 09:06:04;;;;;;;;;;;19.90;31.50;;;;;;5092664;28;19915;-67
2022/02/27 09:08:30;;;;;;;;;;;19.80;31.40;;;;;;5092879;28;19912;-67
2022/02/27 09:10:55;;;;;;;;;;;19.80;31.60;;;;;;5092670;28;19920;-67
2022/02/27 09:13:21;;;;;;;;;;;19.80;31.60;;;;;;5092729;28;19914;-66
2022/02/27 09:15:46;;;;;;;;;;;19.80;31.30;;;;;;5092484;28;20303;-67
2022/02/27 09:18:12;;;;;;;;;;;19.90;31.30;;;;;;5092450;28;19962;-67
2022/02/27 09:20:37;;;;;;;;;;;19.80;31.40;;;;;;5092686;28;19947;-67
2022/02/27 09:23:03;;;;;;;;;;;19.90;31.20;;;;;;5092433;28;19908;-68
2022/02/27 09:25:28;;;;;;;;;;;19.90;31.40;;;;;;5092497;28;19912;-66
2022/02/27 09:27:54;;;;;;;;;;;19.90;31.30;;;;;;5092474;28;19915;-67
2022/02/27 09:30:19;;;;;;;;;;;19.90;31.30;;;;;;5092597;28;20436;-67
2022/02/27 09:32:45;;;;;;;;;;;19.90;31.40;;;;;;5092153;28;20334;-67
2022/02/27 09:35:10;;;;;;;;;;;19.90;31.40;;;;;;5092456;28;19920;-66
2022/02/27 09:37:36;;;;;;;;;;;19.90;31.20;;;;;;5092485;28;19915;-67
2022/02/27 09:40:02;;;;;;;;;;;20.00;31.40;;;;;;5092310;28;19908;-66
2022/02/27 09:42:28;;;;;;;;;;;20.00;31.30;;;;;;5092565;28;19952;-67
2022/02/27 09:44:54;;;;;;;;;;;19.90;31.40;;;;;;5092412;28;19908;-67
2022/02/27 09:47:19;;;;;;;;;;;20.00;31.40;;;;;;5092168;28;20249;-66
2022/02/27 09:49:48;;;;;;;;;;;20.00;31.60;;;;;;5092431;28;19912;-67
2022/02/27 09:52:14;;;;;;;;;;;20.00;31.60;;;;;;5092429;28;19912;-67
2022/02/27 09:54:40;;;;;;;;;;;20.00;31.50;;;;;;5092167;28;19914;-67
2022/02/27 09:57:05;;;;;;;;;;;20.00;31.60;;;;;;5092317;28;19908;-67
2022/02/27 09:59:31;;;;;;;;;;;20.10;31.50;;;;;;5092229;28;19908;-66
2022/02/27 10:02:04;;;;;;;;;;;20.10;31.40;;;;;;5092208;28;19955;-66
2022/02/27 10:04:50;;;;;;;;;;;20.10;31.50;;;;;;5092009;28;19939;-67
2022/02/27 10:07:17;;;;;;;;;;;20.10;31.50;;;;;;5092023;28;19909;-67
2022/02/27 10:09:43;;;;;;;;;;;20.10;31.40;;;;;;5092337;28;19965;-67
2022/02/27 10:12:13;;;;;;;;;;;20.20;31.40;;;;;;5095607;28;19912;-67
2022/02/27 10:14:38;;;;;;;;;;;20.20;31.40;;;;;;5060695;28;19912;-67
2022/02/27 10:17:04;;;;;;;;;;;20.20;31.20;;;;;;5095596;28;19916;-67
2022/02/27 10:19:34;;;;;;;;;;;20.30;31.20;;;;;;5095622;28;19909;-66
2022/02/27 10:22:00;;;;;;;;;;;20.30;31.30;;;;;;5095900;28;19931;-67
2022/02/27 10:24:25;;;;;;;;;;;20.30;31.20;;;;;;5094492;28;19908;-67
2022/02/27 10:26:51;;;;;;;;;;;20.30;31.10;;;;;;5095732;28;20006;-67
2022/02/27 10:29:21;;;;;;;;;;;20.40;31.10;;;;;;5095869;28;19908;-67
2022/02/27 10:31:48;;;;;;;;;;;20.40;31.10;;;;;;5095895;28;19916;-67
2022/02/27 10:34:22;;;;;;;;;;;20.40;31.10;;;;;;5077029;28;19908;-67
2022/02/27 10:36:55;;;;;;;;;;;20.50;31.00;;;;;;5095371;28;20002;-67
2022/02/27 10:39:31;;;;;;;;;;;20.50;31.10;;;;;;5095360;28;20018;-66
2022/02/27 10:42:12;;;;;;;;;;;20.50;30.90;;;;;;5095509;28;20253;-67
2022/02/27 10:44:39;;;;;;;;;;;20.50;31.10;;;;;;5095190;28;19915;-66
2022/02/27 10:47:12;;;;;;;;;;;20.60;31.00;;;;;;5095015;28;19908;-67
2022/02/27 10:49:38;;;;;;;;;;;20.60;31.00;;;;;;5095015;28;19908;-67
2022/02/27 10:52:14;;;;;;;;;;;20.70;31.00;;;;;;5094853;28;19919;-67
2022/02/27 10:54:43;;;;;;;;;;;20.70;31.00;;;;;;5095130;28;19939;-67
2022/02/27 10:57:10;;;;;;;;;;;20.70;30.90;;;;;;5095108;28;19944;-67
2022/02/27 10:59:37;;;;;;;;;;;20.70;30.90;;;;;;5094624;28;19915;-67
2022/02/27 11:02:04;;;;;;;;;;;20.80;30.90;;;;;;5094135;28;21299;-67
2022/02/27 11:04:30;;;;;;;;;;;20.80;30.90;;;;;;5094606;28;20295;-67
2022/02/27 11:06:55;;;;;;;;;;;20.90;30.80;;;;;;5076521;28;19914;-68
2022/02/27 11:09:21;;;;;;;;;;;20.90;30.80;;;;;;5094655;28;19919;-67
2022/02/27 11:11:46;;;;;;;;;;;20.90;30.80;;;;;;5094494;28;19922;-67
2022/02/27 11:14:12;;;;;;;;;;;21.00;30.80;;;;;;5094481;28;19995;-67
2022/02/27 11:16:37;;;;;;;;;;;21.00;30.70;;;;;;5094493;28;19908;-67
2022/02/27 11:19:03;;;;;;;;;;;21.00;30.70;;;;;;5094359;28;20356;-66
2022/02/27 11:21:28;;;;;;;;;;;21.00;30.70;;;;;;5094344;28;19908;-67
2022/02/27 11:23:55;;;;;;;;;;;21.00;30.60;;;;;;5094687;28;19908;-67
2022/02/27 11:26:21;;;;;;;;;;;21.10;30.70;;;;;;5076300;28;20015;-66
2022/02/27 11:28:47;;;;;;;;;;;21.10;30.60;;;;;;5094221;28;20436;-66
2022/02/27 11:31:13;;;;;;;;;;;21.10;30.50;;;;;;5094023;28;19939;-66
2022/02/27 11:33:39;;;;;;;;;;;21.20;30.50;;;;;;5094270;28;19908;-66
2022/02/27 11:36:17;;;;;;;;;;;21.20;30.50;;;;;;5094218;28;20007;-67
2022/02/27 11:38:43;;;;;;;;;;;21.30;30.40;;;;;;5094214;28;19911;-66
2022/02/27 11:41:14;;;;;;;;;;;21.40;30.40;;;;;;5093939;28;19979;-67
2022/02/27 11:43:50;;;;;;;;;;;21.30;30.30;;;;;;5093672;28;19965;-67
2022/02/27 11:46:16;;;;;;;;;;;21.40;30.30;;;;;;5094056;28;20344;-68
2022/02/27 11:48:51;;;;;;;;;;;21.50;30.30;;;;;;5094203;28;20003;-66
2022/02/27 11:51:35;;;;;;;;;;;21.50;30.20;;;;;;5094000;28;19963;-66
2022/02/27 11:54:04;;;;;;;;;;;21.50;30.10;;;;;;5094022;28;20089;-66
2022/02/27 11:56:29;;;;;;;;;;;21.60;30.20;;;;;;5093857;28;19909;-66
2022/02/27 11:58:55;;;;;;;;;;;21.70;30.10;;;;;;5075608;28;19977;-66
2022/02/27 12:01:36;;;;;;;;;;;21.70;30.10;;;;;;5093856;28;19927;-66
2022/02/27 12:04:20;;;;;;;;;;;21.80;29.90;;;;;;5093831;28;19923;-67
2022/02/27 12:06:57;;;;;;;;;;;21.90;29.80;;;;;;5093557;28;19908;-66
2022/02/27 12:09:22;;;;;;;;;;;21.90;29.90;;;;;;5093753;28;19908;-66
2022/02/27 12:11:48;;;;;;;;;;;22.00;29.80;;;;;;5093455;28;19923;-66
2022/02/27 12:14:13;;;;;;;;;;;22.00;29.80;;;;;;5093737;28;19953;-67
2022/02/27 12:16:40;;;;;;;;;;;22.00;29.80;;;;;;5093703;28;19915;-67
2022/02/27 12:19:25;;;;;;;;;;;22.00;29.80;;;;;;5093542;28;19912;-66
2022/02/27 12:21:52;;;;;;;;;;;22.00;29.80;;;;;;5093416;28;19909;-66
2022/02/27 12:24:20;;;;;;;;;;;22.00;29.90;;;;;;5093528;28;20005;-66
2022/02/27 12:26:48;;;;;;;;;;;22.00;29.90;;;;;;5093149;28;19913;-66
2022/02/27 12:29:33;;;;;;;;;;;22.00;30.10;;;;;;5093073;28;20040;-67
2022/02/27 12:32:05;;;;;;;;;;;21.90;30.10;;;;;;5092866;28;19962;-66
2022/02/27 12:34:32;;;;;;;;;;;21.90;30.10;;;;;;5092754;28;19909;-67
2022/02/27 12:36:59;;;;;;;;;;;21.80;30.10;;;;;;5093058;28;19908;-67
2022/02/27 12:39:25;;;;;;;;;;;21.80;30.30;;;;;;5092903;28;19908;-66
2022/02/27 12:41:51;;;;;;;;;;;21.80;30.20;;;;;;5092956;28;19919;-67
2022/02/27 12:44:19;;;;;;;;;;;21.70;30.20;;;;;;5092950;28;19908;-65
2022/02/27 12:46:44;;;;;;;;;;;21.70;30.40;;;;;;5092740;28;20279;-66
2022/02/27 12:51:57;;;;;;;;;;;21.70;30.40;;;;;;5093255;28;19993;-66
2022/02/27 12:54:23;;;;;;;;;;;21.70;30.30;;;;;;5092853;28;19908;-66
2022/02/27 12:56:55;;;;;;;;;;;21.60;30.40;;;;;;5092871;28;20062;-65
2022/02/27 12:59:21;;;;;;;;;;;21.60;30.60;;;;;;5092755;28;20276;-66
2022/02/27 13:01:52;;;;;;;;;;;21.60;30.20;;;;;;5092697;28;19931;-67
2022/02/27 13:04:17;;;;;;;;;;;21.50;30.40;;;;;;5092865;28;19908;-66
2022/02/27 13:06:43;;;;;;;;;;;21.50;30.70;;;;;;5092910;28;19923;-67
2022/02/27 13:09:09;;;;;;;;;;;21.50;30.60;;;;;;5092819;28;19915;-66
2022/02/27 13:11:38;;;;;;;;;;;21.50;30.70;;;;;;5092481;28;19920;-66
2022/02/27 13:14:04;;;;;;;;;;;21.50;30.60;;;;;;5092807;28;19908;-67
2022/02/27 13:16:29;;;;;;;;;;;21.50;30.40;;;;;;5092725;28;20305;-66
2022/02/27 13:18:54;;;;;;;;;;;21.50;30.70;;;;;;5092532;28;19912;-67
2022/02/27 13:21:20;;;;;;;;;;;21.50;30.60;;;;;;5092616;28;20244;-66
2022/02/27 13:23:45;;;;;;;;;;;21.50;30.40;;;;;;5092536;28;20364;-67
2022/02/27 13:26:11;;;;;;;;;;;21.50;30.50;;;;;;5092454;28;19912;-66
2022/02/27 13:28:36;;;;;;;;;;;21.50;30.70;;;;;;5092696;28;19908;-66
2022/02/27 13:31:14;;;;;;;;;;;21.40;30.50;;;;;;5092414;28;19989;-66
2022/02/27 13:33:43;;;;;;;;;;;21.40;30.40;;;;;;5092719;28;19915;-66
2022/02/27 13:36:09;;;;;;;;;;;21.40;30.70;;;;;;5092535;28;19908;-67
2022/02/27 13:38:34;;;;;;;;;;;21.40;30.70;;;;;;5092547;28;19962;-66
2022/02/27 13:41:00;;;;;;;;;;;21.40;30.70;;;;;;5092663;28;19954;-67
2022/02/27 13:43:25;;;;;;;;;;;21.40;30.80;;;;;;5092419;28;19915;-66
2022/02/27 13:45:52;;;;;;;;;;;21.40;30.80;;;;;;5094433;28;19912;-66
2022/02/27 13:48:27;;;;;;;;;;;21.40;30.70;;;;;;5096094;28;19908;-66
2022/02/27 13:50:53;;;;;;;;;;;21.30;30.70;;;;;;5096049;28;19924;-67
2022/02/27 13:53:20;;;;;;;;;;;21.30;30.80;;;;;;5095929;28;20268;-67
2022/02/27 13:55:47;;;;;;;;;;;21.30;30.80;;;;;;5095961;28;20352;-66
2022/02/27 13:58:23;;;;;;;;;;;21.30;30.80;;;;;;5096317;28;19915;-67
2022/02/27 14:01:00;;;;;;;;;;;21.30;30.80;;;;;;5096347;28;19920;-67
2022/02/27 14:03:33;;;;;;;;;;;21.30;30.80;;;;;;5095895;28;19953;-67
2022/02/27 14:06:00;;;;;;;;;;;21.30;30.80;;;;;;5095899;28;19947;-66
2022/02/27 14:08:27;;;;;;;;;;;21.30;30.70;;;;;;5095954;28;19915;-67
2022/02/27 14:11:05;;;;;;;;;;;21.30;30.60;;;;;;5095924;28;19916;-69
2022/02/27 14:13:31;;;;;;;;;;;21.30;30.70;;;;;;5095841;28;20367;-68
2022/02/27 14:16:03;;;;;;;;;;;21.30;30.70;;;;;;5095896;28;19954;-67